createdAt,value
2017-06-30T00:01:12.802Z,17.20
2017-06-30T00:03:41.354Z,17.07
2017-06-30T00:06:08.886Z,21.60
2017-06-30T00:08:38.082Z,23.20
2017-06-30T00:11:07.278Z,16.40
2017-06-30T00:13:36.708Z,19.17
2017-06-30T00:16:06.683Z,19.23
2017-06-30T00:18:35.304Z,19.23
2017-06-30T00:21:04.974Z,16.73
2017-06-30T00:23:34.245Z,16.30
2017-06-30T00:26:03.948Z,19.63
2017-06-30T00:28:31.739Z,21.73
2017-06-30T00:31:00.875Z,18.90
2017-06-30T00:33:30.374Z,21.07
2017-06-30T00:36:01.789Z,20.47
2017-06-30T00:38:33.114Z,18.50
2017-06-30T00:41:02.024Z,17.20
2017-06-30T00:43:31.772Z,13.93
2017-06-30T00:46:01.870Z,18.27
2017-06-30T00:48:31.289Z,19.40
2017-06-30T00:51:00.392Z,16.50
2017-06-30T00:53:29.287Z,14.30
2017-06-30T00:55:59.719Z,13.53
2017-06-30T00:58:28.218Z,13.83
2017-06-30T01:00:59.995Z,17.30
2017-06-30T01:03:29.229Z,18.77
2017-06-30T01:05:58.702Z,13.17
2017-06-30T01:08:26.251Z,15.40
2017-06-30T01:10:56.357Z,16.07
2017-06-30T01:13:24.678Z,17.53
2017-06-30T01:15:53.141Z,14.73
2017-06-30T01:18:20.729Z,12.30
2017-06-30T01:20:50.389Z,14.40
2017-06-30T01:23:21.416Z,15.40
2017-06-30T01:25:51.431Z,14.17
2017-06-30T01:28:19.674Z,16.50
2017-06-30T01:30:49.534Z,17.50
2017-06-30T01:33:18.285Z,13.60
2017-06-30T01:35:46.730Z,14.10
2017-06-30T01:38:16.067Z,15.00
2017-06-30T01:40:47.661Z,14.47
2017-06-30T01:43:16.891Z,18.10
2017-06-30T01:45:45.210Z,16.03
2017-06-30T01:48:14.142Z,19.70
2017-06-30T01:50:43.513Z,15.03
2017-06-30T01:53:12.434Z,13.23
2017-06-30T01:55:42.742Z,15.23
2017-06-30T01:58:10.828Z,13.23
2017-06-30T02:00:39.376Z,12.30
2017-06-30T02:03:07.763Z,14.67
2017-06-30T02:05:36.852Z,13.00
2017-06-30T02:08:06.127Z,11.90
2017-06-30T02:10:35.063Z,8.67
2017-06-30T02:13:05.318Z,9.30
2017-06-30T02:15:35.168Z,7.67
2017-06-30T02:18:02.978Z,8.23
2017-06-30T02:20:31.948Z,5.40
2017-06-30T02:23:00.983Z,8.40
2017-06-30T02:25:29.440Z,5.70
2017-06-30T02:27:59.859Z,5.70
2017-06-30T02:30:28.735Z,7.27
2017-06-30T02:33:00.082Z,6.43
2017-06-30T02:35:28.979Z,3.50
2017-06-30T02:37:57.447Z,5.63
2017-06-30T02:40:26.686Z,3.30
2017-06-30T02:42:56.148Z,2.93
2017-06-30T02:45:24.888Z,3.70
2017-06-30T02:47:53.449Z,5.53
2017-06-30T02:50:23.429Z,3.43
2017-06-30T02:52:51.812Z,12.57
2017-06-30T02:55:21.462Z,4.47
2017-06-30T02:57:51.324Z,4.63
2017-06-30T03:00:21.310Z,2.90
2017-06-30T03:02:50.028Z,1.33
2017-06-30T03:05:18.917Z,1.17
2017-06-30T03:07:47.307Z,3.60
2017-06-30T03:10:16.669Z,1.67
2017-06-30T03:12:45.475Z,1.27
2017-06-30T03:15:14.056Z,1.20
2017-06-30T03:17:43.370Z,2.93
2017-06-30T03:20:10.021Z,0.73
2017-06-30T03:22:37.457Z,5.03
2017-06-30T03:25:06.267Z,4.13
2017-06-30T03:27:36.451Z,1.43
2017-06-30T03:30:04.641Z,2.80
2017-06-30T03:32:33.719Z,4.10
2017-06-30T03:35:02.434Z,1.97
2017-06-30T03:37:30.710Z,2.70
2017-06-30T03:40:03.241Z,3.90
2017-06-30T03:42:34.658Z,1.13
2017-06-30T03:45:02.949Z,4.90
2017-06-30T03:47:35.797Z,1.33
2017-06-30T03:50:04.235Z,2.70
2017-06-30T03:52:32.900Z,5.17
2017-06-30T03:55:02.524Z,2.43
2017-06-30T03:57:29.674Z,3.23
2017-06-30T03:59:58.471Z,4.47
2017-06-30T04:02:26.700Z,4.43
2017-06-30T04:04:56.276Z,1.03
2017-06-30T04:07:25.666Z,1.67
2017-06-30T04:09:54.441Z,1.00
2017-06-30T04:12:25.473Z,3.07
2017-06-30T04:14:55.336Z,4.30
2017-06-30T04:17:24.676Z,3.60
2017-06-30T04:19:51.923Z,3.37
2017-06-30T04:22:21.602Z,3.07
2017-06-30T04:24:50.531Z,1.70
2017-06-30T04:27:19.322Z,5.07
2017-06-30T04:29:48.723Z,2.43
2017-06-30T04:32:16.575Z,10.77
2017-06-30T04:34:43.724Z,2.23
2017-06-30T04:37:11.896Z,3.00
2017-06-30T04:39:41.914Z,3.30
2017-06-30T04:42:08.548Z,1.80
2017-06-30T04:44:38.809Z,2.87
2017-06-30T04:47:09.770Z,5.27
2017-06-30T04:49:36.479Z,2.87
2017-06-30T04:52:05.258Z,2.83
2017-06-30T04:54:34.066Z,2.20
2017-06-30T04:57:03.808Z,7.57
2017-06-30T04:59:30.463Z,5.67
2017-06-30T05:01:57.611Z,3.17
2017-06-30T05:04:26.433Z,3.87
2017-06-30T05:06:55.374Z,3.47
2017-06-30T05:09:24.951Z,4.20
2017-06-30T05:11:54.979Z,3.83
2017-06-30T05:14:23.742Z,5.57
2017-06-30T05:16:52.150Z,4.07
2017-06-30T05:19:19.342Z,1.73
2017-06-30T05:21:52.068Z,6.63
2017-06-30T05:24:20.412Z,2.30
2017-06-30T05:26:48.963Z,3.33
2017-06-30T05:29:18.293Z,3.73
2017-06-30T05:31:47.565Z,9.57
2017-06-30T05:34:16.399Z,5.57
2017-06-30T05:36:44.515Z,6.13
2017-06-30T05:39:12.580Z,3.77
2017-06-30T05:41:40.660Z,4.40
2017-06-30T05:44:09.389Z,3.53
2017-06-30T05:46:38.131Z,7.67
2017-06-30T05:49:05.989Z,4.10
2017-06-30T05:51:34.383Z,3.90
2017-06-30T05:54:03.122Z,3.47
2017-06-30T05:56:32.073Z,6.10
2017-06-30T05:58:59.731Z,3.43
2017-06-30T06:01:29.701Z,3.63
2017-06-30T06:03:58.520Z,3.07
2017-06-30T06:06:27.879Z,3.50
2017-06-30T06:08:56.015Z,3.40
2017-06-30T06:11:26.769Z,1.60
2017-06-30T06:13:54.266Z,4.77
2017-06-30T06:16:22.335Z,8.03
2017-06-30T06:18:51.767Z,5.00
2017-06-30T06:21:21.001Z,2.10
2017-06-30T06:23:49.525Z,3.53
2017-06-30T06:26:17.642Z,6.53
2017-06-30T06:28:45.602Z,3.40
2017-06-30T06:31:15.259Z,3.83
2017-06-30T06:33:45.890Z,6.43
2017-06-30T06:36:14.572Z,2.90
2017-06-30T06:38:43.167Z,6.87
2017-06-30T06:41:11.561Z,3.50
2017-06-30T06:43:41.008Z,4.13
2017-06-30T06:46:10.003Z,5.90
2017-06-30T06:48:40.052Z,8.50
2017-06-30T06:51:09.087Z,4.73
2017-06-30T06:53:36.580Z,4.43
2017-06-30T06:56:05.839Z,5.43
2017-06-30T06:58:33.110Z,1.60
2017-06-30T07:01:02.586Z,7.13
2017-06-30T07:03:31.258Z,2.50
2017-06-30T07:06:01.122Z,2.47
2017-06-30T07:08:29.208Z,11.53
2017-06-30T07:10:56.987Z,4.10
2017-06-30T07:13:26.100Z,3.90
2017-06-30T07:15:53.902Z,4.20
2017-06-30T07:18:23.896Z,4.90
2017-06-30T07:20:52.436Z,5.00
2017-06-30T07:23:22.624Z,2.57
2017-06-30T07:25:52.539Z,5.90
2017-06-30T07:28:19.183Z,4.53
2017-06-30T07:30:49.390Z,9.53
2017-06-30T07:33:17.586Z,7.80
2017-06-30T07:35:44.239Z,6.53
2017-06-30T07:38:10.893Z,7.30
2017-06-30T07:40:39.375Z,5.50
2017-06-30T07:43:07.394Z,3.83
2017-06-30T07:45:38.594Z,5.57
2017-06-30T07:48:07.363Z,9.13
2017-06-30T07:50:36.506Z,2.03
2017-06-30T07:53:04.895Z,6.13
2017-06-30T07:55:31.535Z,5.00
2017-06-30T07:58:00.040Z,4.40
2017-06-30T08:00:29.939Z,6.47
2017-06-30T08:02:57.906Z,4.33
2017-06-30T08:05:27.356Z,4.73
2017-06-30T08:07:57.819Z,5.63
2017-06-30T08:10:26.966Z,8.10
2017-06-30T08:12:56.111Z,4.50
2017-06-30T08:15:23.352Z,10.50
2017-06-30T08:17:50.558Z,11.43
2017-06-30T08:20:19.671Z,2.83
2017-06-30T08:22:46.355Z,8.80
2017-06-30T08:25:16.200Z,2.40
2017-06-30T08:27:45.027Z,6.60
2017-06-30T08:30:12.633Z,8.93
2017-06-30T08:32:41.611Z,4.57
2017-06-30T08:35:10.199Z,3.17
2017-06-30T08:37:39.076Z,3.17
2017-06-30T08:40:08.127Z,5.63
2017-06-30T08:42:36.511Z,3.00
2017-06-30T08:45:05.333Z,2.40
2017-06-30T08:47:33.691Z,5.43
2017-06-30T08:50:01.990Z,2.97
2017-06-30T08:52:31.400Z,7.60
2017-06-30T08:54:58.860Z,9.20
2017-06-30T08:57:29.499Z,2.07
2017-06-30T08:59:58.477Z,4.60
2017-06-30T09:02:28.299Z,3.90
2017-06-30T09:04:58.516Z,3.17
2017-06-30T09:07:28.251Z,4.63
2017-06-30T09:09:56.540Z,3.37
2017-06-30T09:12:25.371Z,4.77
2017-06-30T09:14:54.981Z,6.73
2017-06-30T09:17:23.607Z,4.90
2017-06-30T09:19:51.311Z,3.67
2017-06-30T09:22:19.608Z,2.30
2017-06-30T09:24:46.895Z,4.23
2017-06-30T09:27:15.364Z,3.10
2017-06-30T09:29:42.204Z,2.93
2017-06-30T09:32:11.171Z,3.00
2017-06-30T09:34:41.694Z,5.47
2017-06-30T09:37:10.537Z,7.20
2017-06-30T09:39:41.280Z,4.87
2017-06-30T09:42:10.411Z,6.60
2017-06-30T09:44:37.731Z,7.90
2017-06-30T09:47:05.264Z,8.00
2017-06-30T09:49:32.629Z,4.20
2017-06-30T09:52:01.145Z,7.30
2017-06-30T09:54:27.775Z,3.97
2017-06-30T09:56:57.229Z,9.20
2017-06-30T09:59:25.617Z,5.40
2017-06-30T10:01:52.256Z,6.90
2017-06-30T10:04:19.849Z,5.63
2017-06-30T10:06:48.897Z,4.33
2017-06-30T10:09:19.379Z,3.80
2017-06-30T10:11:47.756Z,6.67
2017-06-30T10:14:14.399Z,11.53
2017-06-30T10:16:45.385Z,4.50
2017-06-30T10:19:15.623Z,4.50
2017-06-30T10:21:42.248Z,5.47
2017-06-30T10:24:12.918Z,6.67
2017-06-30T10:26:42.351Z,5.80
2017-06-30T10:29:11.760Z,4.10
2017-06-30T10:31:39.175Z,5.80
2017-06-30T10:34:07.445Z,6.37
2017-06-30T10:36:34.808Z,6.17
2017-06-30T10:39:01.456Z,14.37
2017-06-30T10:41:31.237Z,5.87
2017-06-30T10:44:02.582Z,7.50
2017-06-30T10:46:29.960Z,6.33
2017-06-30T10:48:58.324Z,11.10
2017-06-30T10:51:27.137Z,5.50
2017-06-30T10:53:56.015Z,4.43
2017-06-30T10:56:24.983Z,12.93
2017-06-30T10:58:54.555Z,4.33
2017-06-30T11:01:22.966Z,8.80
2017-06-30T11:03:52.831Z,4.20
2017-06-30T11:06:21.664Z,6.90
2017-06-30T11:08:50.458Z,4.87
2017-06-30T11:11:18.759Z,4.73
2017-06-30T11:13:47.148Z,4.10
2017-06-30T11:16:16.505Z,3.93
2017-06-30T11:18:45.371Z,6.90
2017-06-30T11:21:12.074Z,4.67
2017-06-30T11:23:42.135Z,4.47
2017-06-30T11:26:10.298Z,2.83
2017-06-30T11:28:39.070Z,8.53
2017-06-30T11:31:06.607Z,2.13
2017-06-30T11:33:34.260Z,4.63
2017-06-30T11:36:04.031Z,5.00
2017-06-30T11:38:33.910Z,5.23
2017-06-30T11:41:02.730Z,4.97
2017-06-30T11:43:33.314Z,3.73
2017-06-30T11:46:00.816Z,6.03
2017-06-30T11:48:29.582Z,4.63
2017-06-30T11:50:57.579Z,8.20
2017-06-30T11:53:26.358Z,5.57
2017-06-30T11:55:55.724Z,5.80
2017-06-30T11:58:25.571Z,2.77
2017-06-30T12:00:54.427Z,4.80
2017-06-30T12:03:26.301Z,4.87
2017-06-30T12:05:55.028Z,5.93
2017-06-30T12:08:23.227Z,8.70
2017-06-30T12:10:51.859Z,5.83
2017-06-30T12:13:20.801Z,2.70
2017-06-30T12:15:49.767Z,5.20
2017-06-30T12:18:17.723Z,2.70
2017-06-30T12:20:45.992Z,4.27
2017-06-30T12:23:13.601Z,6.27
2017-06-30T12:25:40.898Z,4.60
2017-06-30T12:28:07.524Z,6.07
2017-06-30T12:30:34.470Z,7.10
2017-06-30T12:33:01.118Z,4.80
2017-06-30T12:35:27.770Z,8.27
2017-06-30T12:37:54.466Z,4.23
2017-06-30T12:40:21.275Z,7.60
2017-06-30T12:42:47.899Z,5.43
2017-06-30T12:45:14.536Z,2.77
2017-06-30T12:47:41.163Z,5.30
2017-06-30T12:50:09.415Z,8.57
2017-06-30T12:52:37.284Z,5.07
2017-06-30T12:55:03.983Z,7.43
2017-06-30T12:57:31.882Z,4.60
2017-06-30T12:59:58.511Z,6.50
2017-06-30T13:02:29.112Z,4.07
2017-06-30T13:04:57.025Z,15.23
2017-06-30T13:07:29.322Z,4.37
2017-06-30T13:09:55.996Z,3.20
2017-06-30T13:12:22.628Z,1.73
2017-06-30T13:14:50.711Z,3.87
2017-06-30T13:17:20.636Z,1.97
2017-06-30T13:19:49.518Z,7.13
2017-06-30T13:22:17.259Z,4.73
2017-06-30T13:24:47.013Z,7.90
2017-06-30T13:27:16.396Z,5.93
2017-06-30T13:29:47.286Z,5.90
2017-06-30T13:32:14.828Z,4.23
2017-06-30T13:34:45.342Z,3.53
2017-06-30T13:37:13.569Z,6.53
2017-06-30T13:39:42.408Z,9.30
2017-06-30T13:42:12.978Z,1.33
2017-06-30T13:44:42.377Z,3.70
2017-06-30T13:47:11.135Z,7.13
2017-06-30T13:49:38.661Z,4.17
2017-06-30T13:52:08.169Z,3.50
2017-06-30T13:54:37.420Z,6.57
2017-06-30T13:57:07.116Z,4.23
2017-06-30T13:59:36.146Z,7.30
2017-06-30T14:02:04.255Z,4.37
2017-06-30T14:04:34.839Z,2.70
2017-06-30T14:07:02.607Z,7.97
2017-06-30T14:09:30.087Z,6.23
2017-06-30T14:11:56.752Z,4.57
2017-06-30T14:14:26.303Z,4.63
2017-06-30T14:16:52.939Z,4.40
2017-06-30T14:19:20.401Z,7.53
2017-06-30T14:21:47.016Z,2.40
2017-06-30T14:24:13.639Z,4.40
2017-06-30T14:26:40.278Z,3.37
2017-06-30T14:29:08.626Z,4.83
2017-06-30T14:31:35.424Z,1.03
2017-06-30T14:34:02.082Z,2.63
2017-06-30T14:36:33.275Z,3.67
2017-06-30T14:38:59.912Z,4.53
2017-06-30T14:41:26.546Z,6.60
2017-06-30T14:43:56.441Z,4.60
2017-06-30T14:46:25.384Z,8.50
2017-06-30T14:48:55.200Z,6.47
2017-06-30T14:51:25.112Z,2.47
2017-06-30T14:53:54.612Z,4.80
2017-06-30T14:56:24.076Z,5.63
2017-06-30T14:58:52.974Z,2.30
2017-06-30T15:01:19.631Z,5.80
2017-06-30T15:03:46.236Z,5.73
2017-06-30T15:06:16.015Z,3.47
2017-06-30T15:08:44.811Z,6.07
2017-06-30T15:11:16.833Z,3.33
2017-06-30T15:13:47.571Z,3.97
2017-06-30T15:16:14.936Z,7.83
2017-06-30T15:18:44.013Z,2.63
2017-06-30T15:21:11.470Z,3.97
2017-06-30T15:23:38.085Z,4.93
2017-06-30T15:26:09.145Z,2.43
2017-06-30T15:28:35.797Z,3.33
2017-06-30T15:31:03.464Z,3.37
2017-06-30T15:33:30.152Z,1.93
2017-06-30T15:35:56.797Z,2.13
2017-06-30T15:38:24.971Z,4.20
2017-06-30T15:40:54.996Z,4.20
2017-06-30T15:43:23.882Z,6.60
2017-06-30T15:45:52.163Z,4.53
2017-06-30T15:48:20.898Z,4.90
2017-06-30T15:50:51.816Z,3.90
2017-06-30T15:53:20.848Z,2.77
2017-06-30T15:55:50.295Z,3.00
2017-06-30T15:58:16.931Z,1.87
2017-06-30T16:00:48.076Z,2.30
2017-06-30T16:03:15.355Z,1.40
2017-06-30T16:05:41.997Z,3.97
2017-06-30T16:08:11.988Z,4.57
2017-06-30T16:10:38.620Z,5.33
2017-06-30T16:13:06.967Z,2.80
2017-06-30T16:15:34.184Z,2.60
2017-06-30T16:18:03.983Z,6.10
2017-06-30T16:20:33.340Z,1.73
2017-06-30T16:23:02.226Z,2.17
2017-06-30T16:25:30.478Z,3.10
2017-06-30T16:28:00.722Z,1.87
2017-06-30T16:30:32.160Z,3.20
2017-06-30T16:33:00.332Z,2.90
2017-06-30T16:35:29.023Z,2.40
2017-06-30T16:37:58.034Z,3.60
2017-06-30T16:40:27.132Z,2.77
2017-06-30T16:42:56.026Z,1.10
2017-06-30T16:45:25.346Z,3.47
2017-06-30T16:47:51.955Z,2.67
2017-06-30T16:50:21.914Z,2.20
2017-06-30T16:52:50.758Z,5.60
2017-06-30T16:55:19.828Z,1.43
2017-06-30T16:57:48.739Z,4.93
2017-06-30T17:00:17.865Z,4.40
2017-06-30T17:02:47.250Z,2.30
2017-06-30T17:05:17.014Z,1.53
2017-06-30T17:07:45.915Z,8.33
2017-06-30T17:10:15.599Z,1.80
2017-06-30T17:12:43.431Z,5.40
2017-06-30T17:15:13.333Z,8.37
2017-06-30T17:17:43.036Z,3.47
2017-06-30T17:20:13.420Z,2.30
2017-06-30T17:22:43.013Z,3.00
2017-06-30T17:25:11.096Z,3.23
2017-06-30T17:27:40.345Z,4.17
2017-06-30T17:30:13.071Z,2.60
2017-06-30T17:32:41.824Z,6.10
2017-06-30T17:35:12.334Z,1.17
2017-06-30T17:37:43.813Z,1.83
2017-06-30T17:40:10.444Z,2.47
2017-06-30T17:42:37.091Z,1.10
2017-06-30T17:45:04.264Z,3.43
2017-06-30T17:47:33.255Z,7.23
2017-06-30T17:50:01.360Z,7.00
2017-06-30T17:52:28.908Z,3.40
2017-06-30T17:54:56.588Z,1.17
2017-06-30T17:57:23.243Z,2.10
2017-06-30T17:59:49.903Z,3.87
2017-06-30T18:02:19.801Z,4.17
2017-06-30T18:04:50.358Z,2.60
2017-06-30T18:07:16.999Z,3.83
2017-06-30T18:09:43.618Z,5.87
2017-06-30T18:12:10.254Z,4.03
2017-06-30T18:14:38.549Z,7.47
2017-06-30T18:17:05.175Z,6.63
2017-06-30T18:19:31.823Z,2.27
2017-06-30T18:21:58.436Z,3.60
2017-06-30T18:24:25.080Z,1.00
2017-06-30T18:26:51.717Z,2.87
2017-06-30T18:29:18.365Z,7.93
2017-06-30T18:31:45.010Z,3.57
2017-06-30T18:34:11.636Z,8.73
2017-06-30T18:36:38.248Z,8.50
2017-06-30T18:39:04.924Z,11.00
2017-06-30T18:41:31.554Z,10.60
2017-06-30T18:43:58.204Z,10.07
2017-06-30T18:46:24.822Z,15.40
2017-06-30T18:48:51.456Z,8.90
2017-06-30T18:51:18.096Z,11.27
2017-06-30T18:53:44.753Z,17.33
2017-06-30T18:56:11.400Z,12.50
2017-06-30T18:58:38.027Z,11.63
2017-06-30T19:01:04.676Z,8.83
2017-06-30T19:03:31.312Z,8.50
2017-06-30T19:06:01.759Z,11.10
2017-06-30T19:08:30.378Z,10.33
2017-06-30T19:10:59.119Z,8.20
2017-06-30T19:13:30.009Z,13.37
2017-06-30T19:15:58.827Z,9.23
2017-06-30T19:18:27.242Z,7.23
2017-06-30T19:20:54.233Z,8.77
2017-06-30T19:23:23.088Z,5.63
2017-06-30T19:25:50.587Z,12.20
2017-06-30T19:28:18.257Z,5.63
2017-06-30T19:30:48.340Z,6.83
2017-06-30T19:33:17.943Z,9.20
2017-06-30T19:35:47.389Z,6.90
2017-06-30T19:38:15.619Z,7.60
2017-06-30T19:40:44.346Z,9.60
2017-06-30T19:43:15.827Z,9.43
2017-06-30T19:45:45.900Z,12.13
2017-06-30T19:48:14.299Z,8.00
2017-06-30T19:50:42.627Z,16.10
2017-06-30T19:53:13.090Z,15.37
2017-06-30T19:55:42.988Z,14.03
2017-06-30T19:58:12.026Z,15.20
2017-06-30T20:00:41.698Z,16.07
2017-06-30T20:03:08.316Z,9.37
2017-06-30T20:05:41.453Z,9.23
2017-06-30T20:08:09.726Z,12.73
2017-06-30T20:10:39.268Z,13.13
2017-06-30T20:13:09.069Z,23.60
2017-06-30T20:15:39.039Z,25.70
2017-06-30T20:18:07.855Z,23.40
2017-06-30T20:20:38.787Z,23.60
2017-06-30T20:23:05.440Z,22.27
2017-06-30T20:25:32.084Z,24.83
2017-06-30T20:27:58.757Z,20.17
2017-06-30T20:30:25.410Z,27.00
2017-06-30T20:32:52.065Z,27.93
2017-06-30T20:35:18.704Z,25.40
2017-06-30T20:37:45.346Z,23.33
2017-06-30T20:40:12.019Z,22.03
2017-06-30T20:42:38.671Z,15.93
2017-06-30T20:45:05.337Z,23.03
2017-06-30T20:47:31.970Z,27.03
2017-06-30T20:49:58.635Z,21.93
2017-06-30T20:52:25.307Z,23.80
2017-06-30T20:54:51.944Z,32.63
2017-06-30T20:57:18.611Z,31.53
2017-06-30T20:59:45.251Z,32.97
2017-06-30T21:02:11.894Z,37.23
2017-06-30T21:04:38.520Z,45.00
2017-06-30T21:07:05.144Z,42.07
2017-06-30T21:09:31.812Z,38.23
2017-06-30T21:11:58.473Z,38.47
2017-06-30T21:14:25.102Z,36.97
2017-06-30T21:16:51.777Z,34.60
2017-06-30T21:19:18.433Z,33.13
2017-06-30T21:21:45.069Z,37.47
2017-06-30T21:24:11.708Z,36.90
2017-06-30T21:26:38.328Z,41.77
2017-06-30T21:29:05.316Z,42.30
2017-06-30T21:31:31.970Z,35.73
2017-06-30T21:33:58.610Z,35.77
2017-06-30T21:36:25.279Z,41.93
2017-06-30T21:38:51.912Z,38.33
2017-06-30T21:41:18.545Z,45.20
2017-06-30T21:43:45.218Z,40.03
2017-06-30T21:46:11.834Z,52.13
2017-06-30T21:48:39.615Z,42.60
2017-06-30T21:51:06.271Z,37.43
2017-06-30T21:53:32.893Z,42.67
2017-06-30T21:55:59.533Z,52.40
2017-06-30T21:58:26.175Z,40.73
2017-06-30T22:00:53.355Z,45.37
2017-06-30T22:03:19.989Z,40.37
2017-06-30T22:05:46.637Z,50.33
2017-06-30T22:08:13.628Z,42.63
2017-06-30T22:10:40.246Z,41.70
2017-06-30T22:13:06.896Z,44.90
2017-06-30T22:15:37.604Z,44.87
2017-06-30T22:18:08.007Z,51.00
2017-06-30T22:20:34.639Z,54.23
2017-06-30T22:23:01.285Z,49.70
2017-06-30T22:25:28.279Z,56.63
2017-06-30T22:27:54.891Z,48.80
2017-06-30T22:30:21.555Z,56.50
2017-06-30T22:32:48.201Z,47.07
2017-06-30T22:35:14.856Z,50.57
2017-06-30T22:37:42.662Z,56.70
2017-06-30T22:40:09.316Z,49.70
2017-06-30T22:42:35.938Z,53.20
2017-06-30T22:45:02.576Z,51.37
2017-06-30T22:47:29.887Z,47.23
2017-06-30T22:49:56.546Z,52.87
2017-06-30T22:52:23.221Z,49.20
2017-06-30T22:54:49.848Z,33.00
2017-06-30T22:57:16.506Z,36.87
2017-06-30T22:59:43.529Z,35.50
2017-06-30T23:02:10.167Z,37.73
2017-06-30T23:04:36.868Z,40.23
2017-06-30T23:07:03.480Z,45.67
2017-06-30T23:09:31.237Z,40.53
2017-06-30T23:11:59.836Z,42.40
2017-06-30T23:14:26.515Z,40.93
2017-06-30T23:16:53.155Z,43.43
2017-06-30T23:19:19.811Z,56.67
2017-06-30T23:21:48.305Z,51.90
2017-06-30T23:24:14.955Z,45.80
2017-06-30T23:26:41.588Z,44.53
2017-06-30T23:29:08.232Z,57.90
2017-06-30T23:31:34.879Z,39.20
2017-06-30T23:34:01.523Z,43.40
2017-06-30T23:36:28.173Z,45.13
2017-06-30T23:38:54.845Z,35.40
2017-06-30T23:41:21.495Z,46.93
2017-06-30T23:43:48.150Z,34.50
2017-06-30T23:46:14.768Z,33.97
2017-06-30T23:48:41.476Z,38.03
2017-06-30T23:51:08.110Z,31.77
2017-06-30T23:53:34.730Z,34.87
2017-06-30T23:56:01.389Z,33.00
2017-06-30T23:58:28.033Z,40.43
